Time;durP1;ratioP1;P1;durP2;ratioP2;P2;SDS_P1;SDS_P2;PMS_P1;PMS_P2;Temp;Humidity;BMP_temperature;BMP_pressure;BME280_temperature;BME280_humidity;BME280_pressure;Samples;Min_cycle;Max_cycle;Signal;HPM_P1;HPM_P2
2024/04/15 00:02:04;;;;;;;3.17;1.60;;;;;;;16.25;64.16;98362.16;4939493;28;103247;-76
2024/04/15 00:04:30;;;;;;;4.53;1.50;;;;;;;16.35;63.49;98359.84;4969767;28;103252;-76
2024/04/15 00:06:55;;;;;;;5.20;2.00;;;;;;;16.34;63.60;98354.72;4955445;28;103668;-76
2024/04/15 00:09:21;;;;;;;3.90;1.75;;;;;;;16.39;63.61;98334.34;4941179;28;102887;-76
2024/04/15 00:16:36;;;;;;;5.87;1.63;;;;;;;16.33;63.62;98387.81;4968813;28;107516;-76
2024/04/15 00:19:02;;;;;;;4.47;2.03;;;;;;;16.28;63.67;98383.09;4954900;28;103884;-75
2024/04/15 00:21:28;;;;;;;6.85;1.90;;;;;;;16.31;63.52;98373.84;4945885;28;102833;-76
2024/04/15 00:23:53;;;;;;;2.75;1.75;;;;;;;16.37;62.97;98371.13;4938012;28;102943;-76
2024/04/15 00:26:19;;;;;;;4.72;1.50;;;;;;;16.37;63.09;98387.16;4953669;28;103585;-76
2024/04/15 00:28:45;;;;;;;4.00;1.70;;;;;;;16.30;63.17;98393.59;4955295;28;103165;-76
2024/04/15 00:31:11;;;;;;;7.38;1.80;;;;;;;16.37;63.06;98397.88;4971496;28;102867;-76
2024/04/15 00:33:36;;;;;;;3.17;1.60;;;;;;;16.45;62.57;98388.78;4955814;28;102828;-76
2024/04/15 00:36:02;;;;;;;5.15;1.85;;;;;;;16.32;63.14;98376.31;4952626;28;103282;-76
2024/04/15 00:38:28;;;;;;;7.97;1.50;;;;;;;16.36;63.15;98377.53;4939122;28;105372;-76
2024/04/15 00:40:53;;;;;;;6.97;2.17;;;;;;;16.17;63.74;98370.44;4953178;28;102857;-76
2024/04/15 00:48:00;;;;;;;;;;;;;;;16.12;63.65;98359.56;4968113;28;107512;-76
2024/04/15 00:50:29;;;;;;;3.25;1.50;;;;;;;16.00;63.68;98346.06;4954143;28;103861;-76
2024/04/15 00:52:56;;;;;;;3.53;1.40;;;;;;;16.10;63.01;98342.91;4952808;28;102872;-76
2024/04/15 00:55:22;;;;;;;3.55;1.58;;;;;;;15.95;63.41;98333.31;4955696;28;102837;-76
2024/04/15 00:57:53;;;;;;;4.50;1.83;;;;;;;15.98;63.05;98327.56;4950831;28;104238;-76
2024/04/15 01:00:22;;;;;;;8.88;1.92;;;;;;;15.99;63.12;98323.84;4938740;28;105395;-76
2024/04/15 01:02:48;;;;;;;5.18;1.75;;;;;;;15.89;63.30;98326.16;4938133;28;103259;-76
2024/04/15 01:05:14;;;;;;;5.40;1.80;;;;;;;15.88;63.72;98324.53;4935858;28;102844;-76
2024/04/15 01:07:39;;;;;;;4.05;1.65;;;;;;;15.88;63.79;98321.88;4952478;28;106065;-76
2024/04/15 01:10:06;;;;;;;5.70;1.63;;;;;;;15.87;63.67;98320.22;4952482;28;103291;-76
2024/04/15 01:12:32;;;;;;;2.78;1.60;;;;;;;15.71;64.29;98340.97;4965914;28;102911;-76
2024/04/15 01:15:00;;;;;;;3.75;1.55;;;;;;;15.73;64.49;98319.41;4954621;28;102860;-76
2024/04/15 01:17:25;;;;;;;3.08;1.80;;;;;;;15.91;63.63;98305.41;4943840;28;105358;-76
2024/04/15 01:19:51;;;;;;;5.10;2.17;;;;;;;15.79;63.86;98307.06;4951494;28;103290;-76
2024/04/15 01:22:23;;;;;;;3.95;1.45;;;;;;;15.73;63.68;98303.38;4957323;28;103075;-76
2024/04/15 01:24:50;;;;;;;5.07;1.30;;;;;;;15.83;63.27;98313.66;4937577;28;103020;-76
2024/04/15 01:27:16;;;;;;;2.47;1.40;;;;;;;15.80;63.28;98311.38;4954486;28;106079;-76
2024/04/15 01:29:42;;;;;;;3.90;1.48;;;;;;;15.86;62.90;98305.22;4949342;28;106036;-76
2024/04/15 01:32:07;;;;;;;4.68;1.77;;;;;;;15.78;62.89;98300.09;4953459;28;102867;-76
2024/04/15 01:34:35;;;;;;;3.20;1.30;;;;;;;15.73;63.04;98290.88;4953381;28;104743;-76
2024/04/15 01:37:04;;;;;;;3.60;1.55;;;;;;;15.63;63.39;98287.81;4951435;28;103732;-76
2024/04/15 01:39:30;;;;;;;5.03;1.50;;;;;;;15.78;62.70;98284.06;4952048;28;102916;-76
2024/04/15 01:41:55;;;;;;;3.10;1.25;;;;;;;15.67;63.21;98283.69;4962507;28;102911;-76
2024/04/15 01:44:21;;;;;;;9.82;1.55;;;;;;;15.44;63.67;98283.38;4954044;28;102979;-75
2024/04/15 01:46:47;;;;;;;6.55;1.33;;;;;;;15.55;63.43;98293.38;4955900;28;103287;-76
2024/04/15 01:49:13;;;;;;;3.80;1.40;;;;;;;15.54;63.16;98283.75;4952027;28;103393;-76
2024/04/15 01:56:05;;;;;;;3.72;1.50;;;;;;;15.29;63.86;98279.09;4971006;28;102959;-75
2024/04/15 01:58:31;;;;;;;3.20;1.33;;;;;;;15.36;63.06;98279.88;4940477;28;105904;-76
2024/04/15 02:01:04;;;;;;;6.35;1.58;;;;;;;15.30;62.86;98275.41;4933761;28;105430;-76
2024/04/15 02:03:32;;;;;;;5.50;1.60;;;;;;;15.16;63.33;98266.59;4954726;28;103041;-76
2024/04/15 02:05:58;;;;;;;3.25;1.48;;;;;;;15.25;63.46;98269.88;4921846;28;102950;-75
2024/04/15 02:08:23;;;;;;;2.60;1.40;;;;;;;15.40;62.90;98251.75;4934925;28;106776;-76
2024/04/15 02:10:49;;;;;;;2.83;1.50;;;;;;;15.37;62.81;98262.84;4953696;28;103733;-76
2024/04/15 02:13:15;;;;;;;4.75;1.60;;;;;;;15.31;62.63;98274.34;4952589;28;102823;-75
2024/04/15 02:15:43;;;;;;;2.88;1.30;;;;;;;15.31;62.18;98281.56;4936173;28;102828;-76
2024/04/15 02:18:09;;;;;;;3.25;1.20;;;;;;;15.32;61.96;98292.00;4923077;28;105406;-75
2024/04/15 02:20:34;;;;;;;3.38;1.30;;;;;;;15.30;61.87;98288.75;4938337;28;103463;-75
2024/04/15 02:28:03;;;;;;;3.30;1.35;;;;;;;15.22;61.26;98260.44;4968776;28;103096;-76
2024/04/15 02:30:28;;;;;;;2.97;1.25;;;;;;;15.34;61.12;98268.63;4927708;28;105608;-76
2024/04/15 02:32:54;;;;;;;3.83;1.23;;;;;;;15.36;61.22;98260.41;4949747;28;105527;-75
2024/04/15 02:35:20;;;;;;;4.65;1.40;;;;;;;15.25;61.56;98260.00;4955275;28;102878;-76
2024/04/15 02:37:45;;;;;;;6.15;1.38;;;;;;;15.16;61.99;98255.94;4953476;28;102989;-76
2024/04/15 02:40:11;;;;;;;3.67;1.50;;;;;;;15.24;61.90;98260.22;4939668;28;103249;-76
2024/04/15 02:42:36;;;;;;;4.75;1.70;;;;;;;15.19;61.89;98265.38;4954444;28;104264;-76
2024/04/15 02:45:02;;;;;;;2.65;1.50;;;;;;;15.16;61.86;98261.25;4938602;28;103036;-76
2024/04/15 02:47:28;;;;;;;3.47;1.00;;;;;;;15.31;61.26;98254.88;4942248;28;102816;-76
2024/04/15 02:49:54;;;;;;;3.92;1.65;;;;;;;15.31;60.29;98241.53;4920139;28;105304;-76
2024/04/15 02:52:19;;;;;;;3.47;1.35;;;;;;;15.23;60.37;98230.03;4935380;28;105804;-76
2024/04/15 02:59:08;;;;;;;4.07;1.33;;;;;;;15.27;60.37;98240.31;4966054;28;102847;-76
2024/04/15 03:01:34;;;;;;;1.55;1.00;;;;;;;15.12;60.60;98248.53;4958819;28;103567;-75
2024/04/15 03:04:00;;;;;;;4.13;1.48;;;;;;;15.13;60.63;98239.53;4935182;28;105919;-76
2024/04/15 03:06:26;;;;;;;3.30;1.20;;;;;;;15.16;60.35;98247.13;4955175;28;103305;-74
2024/04/15 03:08:51;;;;;;;5.05;1.20;;;;;;;15.32;60.33;98253.84;4939253;28;102928;-76
2024/04/15 03:11:17;;;;;;;5.07;1.48;;;;;;;15.30;60.22;98239.88;4957870;28;105374;-76
2024/04/15 03:18:32;;;;;;;2.47;1.55;;;;;;;14.95;61.06;98246.34;4972673;28;102729;-76
2024/04/15 03:21:07;;;;;;;2.92;1.35;;;;;;;15.08;60.76;98258.84;4956290;28;102736;-76
2024/04/15 03:23:33;;;;;;;2.22;1.30;;;;;;;14.90;61.50;98252.28;4968575;28;105497;-76
2024/04/15 03:26:01;;;;;;;4.15;1.52;;;;;;;14.83;62.71;98262.13;4957073;28;103531;-76
2024/04/15 03:28:27;;;;;;;4.95;1.67;;;;;;;14.90;62.70;98262.94;4940899;28;102850;-76
2024/04/15 03:30:53;;;;;;;4.95;1.70;;;;;;;14.63;64.33;98239.97;4939396;28;103403;-76
2024/04/15 03:33:19;;;;;;;3.60;1.65;;;;;;;14.48;65.42;98234.84;4937931;28;104435;-76
2024/04/15 03:35:44;;;;;;;2.92;1.77;;;;;;;14.46;65.65;98255.53;4938563;28;106518;-76
2024/04/15 03:38:10;;;;;;;4.80;1.88;;;;;;;14.43;65.50;98246.91;4955964;28;103044;-76
2024/04/15 03:40:36;;;;;;;6.13;2.22;;;;;;;14.09;66.96;98214.09;4943618;28;102924;-76
2024/04/15 03:43:02;;;;;;;2.75;1.65;;;;;;;14.42;65.66;98192.00;4954579;28;104385;-76
2024/04/15 03:45:30;;;;;;;4.88;2.28;;;;;;;14.24;66.15;98199.78;4960463;28;103411;-82
2024/04/15 03:47:56;;;;;;;5.65;2.20;;;;;;;14.24;66.03;98205.94;4966576;28;103822;-82
2024/04/15 03:50:23;;;;;;;7.60;3.30;;;;;;;14.05;66.38;98202.22;4968773;28;102832;-81
2024/04/15 03:52:54;;;;;;;9.05;3.20;;;;;;;13.99;66.58;98204.88;4962378;28;105484;-80
2024/04/15 03:55:19;;;;;;;5.85;2.60;;;;;;;14.15;65.77;98201.00;4942987;28;104275;-76
2024/04/15 03:57:45;;;;;;;7.15;3.17;;;;;;;14.26;65.13;98213.72;4944904;28;102871;-78
2024/04/15 04:00:11;;;;;;;5.60;2.70;;;;;;;14.36;64.61;98214.13;4960021;28;102930;-77
2024/04/15 04:02:36;;;;;;;7.60;3.03;;;;;;;14.27;65.46;98215.38;4954713;28;104164;-78
2024/04/15 04:05:04;;;;;;;8.45;3.35;;;;;;;14.36;64.34;98208.81;4938881;28;107596;-78
2024/04/15 04:07:31;;;;;;;9.65;3.65;;;;;;;14.00;65.44;98204.66;4958183;28;102812;-78
2024/04/15 04:09:57;;;;;;;9.55;3.92;;;;;;;13.81;65.96;98200.97;4955958;28;103566;-78
2024/04/15 04:12:23;;;;;;;11.80;3.85;;;;;;;13.70;66.05;98210.34;4927864;28;105237;-76
2024/04/15 04:14:50;;;;;;;8.57;3.58;;;;;;;14.00;65.18;98210.00;4957765;28;103855;-71
2024/04/15 04:17:16;;;;;;;11.85;3.78;;;;;;;13.98;64.75;98221.88;4956326;28;102847;-71
2024/04/15 04:19:42;;;;;;;7.82;3.53;;;;;;;14.17;64.33;98230.91;4958245;28;102747;-73
2024/04/15 04:22:11;;;;;;;11.05;3.70;;;;;;;14.04;64.77;98235.22;4956363;28;109380;-71
2024/04/15 04:24:37;;;;;;;8.60;3.90;;;;;;;13.88;65.56;98225.75;4935983;28;105367;-72
2024/04/15 04:27:03;;;;;;;14.75;4.50;;;;;;;13.59;66.73;98230.34;4957192;28;103203;-71
2024/04/15 04:29:32;;;;;;;7.88;3.33;;;;;;;13.70;67.27;98228.16;4960342;28;102870;-71
2024/04/15 04:31:57;;;;;;;9.80;3.58;;;;;;;13.55;68.22;98218.47;4957511;28;103755;-71
2024/04/15 04:34:23;;;;;;;10.82;4.05;;;;;;;13.77;67.35;98232.47;4962632;28;103599;-71
2024/04/15 04:36:49;;;;;;;11.68;4.55;;;;;;;13.43;69.13;98226.22;4957688;28;103401;-71
2024/04/15 04:39:15;;;;;;;10.38;4.25;;;;;;;13.25;70.23;98239.19;4978357;28;102848;-73
2024/04/15 04:41:40;;;;;;;7.18;3.30;;;;;;;13.53;68.70;98238.31;4949801;28;104768;-74
2024/04/15 04:44:06;;;;;;;9.13;3.20;;;;;;;13.72;68.46;98232.25;4954983;28;105193;-70
2024/04/15 04:55:44;;;;;;;6.38;3.30;;;;;;;13.55;70.53;98220.31;4973208;28;107697;-73
2024/04/15 04:58:13;;;;;;;8.27;3.25;;;;;;;13.65;69.89;98210.13;4976576;28;103088;-74
2024/04/15 05:00:39;;;;;;;5.95;2.78;;;;;;;13.76;68.93;98220.19;4978841;28;102920;-75
2024/04/15 05:03:08;;;;;;;5.20;2.55;;;;;;;13.86;69.28;98229.63;4944752;28;104498;-74
2024/04/15 05:05:36;;;;;;;8.27;3.20;;;;;;;13.84;69.72;98242.31;4959843;28;103370;-72
2024/04/15 05:08:02;;;;;;;5.45;2.95;;;;;;;13.71;70.63;98243.91;4959375;28;105867;-74
2024/04/15 05:10:28;;;;;;;6.75;2.97;;;;;;;13.79;71.12;98252.75;4941438;28;102962;-72
2024/04/15 05:12:53;;;;;;;7.32;2.80;;;;;;;13.72;71.25;98245.56;4958483;28;102763;-72
2024/04/15 05:15:19;;;;;;;5.47;2.50;;;;;;;13.76;70.77;98228.16;4951973;28;103290;-72
2024/04/15 05:17:46;;;;;;;7.95;2.97;;;;;;;13.64;72.02;98224.44;4935699;28;106096;-71
2024/04/15 05:20:12;;;;;;;5.75;2.42;;;;;;;13.68;71.69;98239.00;4951133;28;103257;-70
2024/04/15 05:22:37;;;;;;;4.25;1.83;;;;;;;13.69;70.88;98245.97;4952563;28;102980;-72
2024/04/15 05:25:03;;;;;;;6.05;1.98;;;;;;;13.68;70.37;98249.63;4917640;28;106912;-71
2024/04/15 05:27:29;;;;;;;6.13;1.80;;;;;;;13.72;67.88;98245.56;4905939;28;106671;-71
2024/04/15 05:29:55;;;;;;;7.00;1.73;;;;;;;13.75;68.50;98245.19;4936299;28;102900;-70
2024/04/15 05:32:20;;;;;;;5.60;1.33;;;;;;;13.83;69.47;98240.69;4953571;28;102747;-71
2024/04/15 05:34:46;;;;;;;3.55;1.27;;;;;;;13.84;67.77;98256.44;4931623;28;105184;-70
2024/04/15 05:37:11;;;;;;;4.18;1.30;;;;;;;13.52;67.90;98258.78;4948973;28;103052;-71
2024/04/15 05:39:37;;;;;;;3.85;1.27;;;;;;;13.59;66.82;98264.94;4943892;28;102832;-70
2024/04/15 05:42:05;;;;;;;3.95;0.90;;;;;;;13.76;66.12;98256.63;4949712;28;102813;-69
2024/04/15 05:44:31;;;;;;;3.67;1.10;;;;;;;13.82;66.08;98255.00;4940259;28;103270;-69
2024/04/15 05:46:57;;;;;;;5.05;1.30;;;;;;;13.58;65.86;98258.00;4947646;28;103470;-69
2024/04/15 05:49:22;;;;;;;2.28;0.82;;;;;;;13.79;65.97;98258.88;4948552;28;102883;-69
2024/04/15 05:51:50;;;;;;;5.78;2.78;;;;;;;13.80;65.66;98257.88;4936026;28;103008;-70
2024/04/15 05:54:16;;;;;;;6.53;1.00;;;;;;;13.70;65.28;98263.59;4950814;28;103867;-69
2024/04/15 05:56:41;;;;;;;5.32;1.10;;;;;;;13.88;65.15;98264.84;4935233;28;105959;-69
2024/04/15 05:59:07;;;;;;;4.32;1.30;;;;;;;13.77;65.09;98267.06;4960933;28;102920;-69
2024/04/15 06:01:33;;;;;;;4.22;1.08;;;;;;;13.61;66.12;98275.38;4952089;28;102989;-69
2024/04/15 06:03:58;;;;;;;3.95;1.15;;;;;;;13.66;65.91;98267.63;4942399;28;103362;-69
2024/04/15 06:06:24;;;;;;;6.20;1.17;;;;;;;13.56;64.85;98273.34;4941002;28;103155;-69
2024/04/15 06:08:50;;;;;;;3.13;1.13;;;;;;;13.54;64.72;98251.41;4951040;28;103362;-69
2024/04/15 06:11:15;;;;;;;3.35;1.10;;;;;;;13.51;65.84;98233.19;4951937;28;103374;-69
2024/04/15 06:13:41;;;;;;;8.98;1.63;;;;;;;13.53;65.02;98235.66;4942794;28;103595;-69
2024/04/15 06:21:50;;;;;;;6.50;1.57;;;;;;;13.60;65.07;98247.16;4946224;28;103278;-79
2024/04/15 06:24:16;;;;;;;2.90;1.13;;;;;;;13.63;65.29;98257.41;4958462;28;103049;-80
2024/04/15 06:26:41;;;;;;;5.13;1.38;;;;;;;13.49;65.48;98255.69;4949402;28;103215;-81
2024/04/15 06:29:07;;;;;;;5.70;1.40;;;;;;;13.49;65.94;98255.69;4941812;28;104425;-80
2024/04/15 06:31:33;;;;;;;13.50;1.50;;;;;;;13.45;65.04;98259.78;4953418;28;103173;-79
2024/04/15 06:34:01;;;;;;;2.08;1.10;;;;;;;13.32;65.90;98255.97;4958786;28;102874;-80
2024/04/15 06:36:30;;;;;;;7.88;1.73;;;;;;;13.27;67.14;98253.13;4956523;28;103472;-81
2024/04/15 06:38:56;;;;;;;6.75;1.92;;;;;;;13.51;65.59;98248.34;4955677;28;103371;-78
2024/04/15 06:41:21;;;;;;;4.18;1.30;;;;;;;13.66;65.64;98251.66;4940900;28;102899;-80
2024/04/15 06:43:47;;;;;;;7.47;1.45;;;;;;;13.58;66.06;98259.81;4960223;28;102901;-80
2024/04/15 06:46:13;;;;;;;4.85;1.40;;;;;;;13.70;66.18;98252.94;4941900;28;102867;-81
2024/04/15 06:48:40;;;;;;;6.32;1.58;;;;;;;13.34;66.78;98259.28;4960000;28;104875;-80
2024/04/15 06:51:06;;;;;;;5.22;1.40;;;;;;;13.47;66.63;98268.38;4959235;28;102863;-81
2024/04/15 06:53:35;;;;;;;6.55;1.20;;;;;;;13.37;66.40;98258.91;4955691;28;102899;-80
2024/04/15 06:56:01;;;;;;;4.50;1.40;;;;;;;13.41;66.64;98260.19;4961635;28;103776;-82
2024/04/15 06:58:28;;;;;;;8.05;1.55;;;;;;;13.56;66.35;98256.56;4945517;28;103217;-80
2024/04/15 07:00:56;;;;;;;4.78;1.45;;;;;;;13.43;67.08;98250.16;4945787;28;102929;-81
2024/04/15 07:03:22;;;;;;;4.40;1.48;;;;;;;13.49;66.62;98255.69;4948925;28;103075;-81
2024/04/15 07:05:48;;;;;;;3.53;1.10;;;;;;;13.51;66.43;98248.34;4945711;28;103703;-77
2024/04/15 07:08:14;;;;;;;3.20;1.13;;;;;;;13.43;65.82;98252.81;4954484;28;102904;-81
2024/04/15 07:10:40;;;;;;;4.65;1.30;;;;;;;13.53;65.90;98254.28;4963880;28;102923;-80
2024/04/15 07:13:06;;;;;;;4.75;1.83;;;;;;;13.64;65.44;98259.03;4949799;28;102876;-81
2024/04/15 07:15:32;;;;;;;6.32;1.52;;;;;;;13.75;66.05;98258.47;4968112;28;103641;-80
2024/04/15 07:17:58;;;;;;;5.60;1.30;;;;;;;13.84;65.21;98258.28;4950364;28;104174;-79
2024/04/15 07:20:24;;;;;;;7.95;1.50;;;;;;;13.59;65.17;98269.47;4950542;28;102785;-80
2024/04/15 07:22:52;;;;;;;4.85;1.33;;;;;;;13.60;65.59;98268.44;4947171;28;102836;-82
2024/04/15 07:25:17;;;;;;;5.50;1.80;;;;;;;13.47;66.30;98273.69;4970323;28;102769;-82
2024/04/15 07:27:43;;;;;;;6.05;1.60;;;;;;;13.48;65.42;98275.34;4937861;28;104945;-82
2024/04/15 07:30:09;;;;;;;4.35;1.60;;;;;;;13.49;65.45;98271.66;4963215;28;104574;-79
2024/04/15 07:32:35;;;;;;;5.88;1.85;;;;;;;13.43;65.67;98262.63;4981553;28;102872;-79
2024/04/15 07:35:04;;;;;;;5.43;1.70;;;;;;;13.58;64.79;98259.81;4960948;28;105074;-83
2024/04/15 07:37:31;;;;;;;8.70;1.88;;;;;;;13.53;64.78;98267.59;4952329;28;104672;-83
2024/04/15 07:39:57;;;;;;;6.45;2.15;;;;;;;13.50;65.08;98257.34;4965513;28;102828;-83
2024/04/15 07:42:24;;;;;;;7.03;1.63;;;;;;;13.63;65.15;98248.59;4942372;28;102685;-73
2024/04/15 07:44:49;;;;;;;8.50;2.05;;;;;;;13.81;64.75;98246.22;4953620;28;102980;-73
2024/04/15 07:47:19;;;;;;;7.80;2.28;;;;;;;13.97;64.52;98247.69;4938704;28;103169;-74
2024/04/15 07:49:46;;;;;;;6.30;2.00;;;;;;;13.84;65.23;98237.00;4927974;28;103379;-75
2024/04/15 07:52:12;;;;;;;5.25;1.90;;;;;;;13.77;64.99;98243.13;4948762;28;102826;-74
2024/04/15 08:08:16;;;;;;;14.07;2.88;;;;;;;13.81;66.99;98238.22;4951857;28;103751;-74
2024/04/15 08:10:41;;;;;;;6.50;2.33;;;;;;;13.95;67.48;98238.25;4943102;28;105658;-76
2024/04/15 08:13:07;;;;;;;9.82;3.00;;;;;;;13.24;68.49;98237.53;4963087;28;103645;-75
2024/04/15 08:20:24;;;;;;;7.27;2.33;;;;;;;13.92;67.74;98220.84;4951752;28;103554;-73
2024/04/15 08:22:52;;;;;;;6.25;2.92;;;;;;;14.00;67.59;98215.31;4943926;28;104647;-73
2024/04/15 08:25:17;;;;;;;10.27;3.25;;;;;;;14.00;67.29;98220.63;4921402;28;105316;-74
2024/04/15 08:27:46;;;;;;;8.18;3.20;;;;;;;13.98;67.19;98221.88;4924321;28;104160;-75
2024/04/15 08:30:13;;;;;;;7.95;3.50;;;;;;;13.82;68.66;98201.78;4935347;28;103194;-74
2024/04/15 08:32:40;;;;;;;10.25;3.90;;;;;;;13.70;67.97;98205.03;4953045;28;103785;-74
2024/04/15 08:35:06;;;;;;;8.63;2.97;;;;;;;13.95;68.26;98206.31;4948574;28;103784;-74
2024/04/15 08:37:32;;;;;;;8.75;3.33;;;;;;;14.16;67.83;98210.63;4938134;28;102847;-75
2024/04/15 08:39:59;;;;;;;7.78;3.28;;;;;;;14.21;67.34;98202.84;4955094;28;103154;-74
2024/04/15 08:42:36;;;;;;;10.85;3.33;;;;;;;14.05;68.10;98201.41;4959526;28;103933;-74
2024/04/15 08:45:08;;;;;;;9.05;3.58;;;;;;;13.90;66.02;98196.28;4941242;28;104949;-74
2024/04/15 08:47:35;;;;;;;7.50;2.97;;;;;;;13.87;66.94;98196.66;4938156;28;103350;-74
2024/04/15 08:50:05;;;;;;;10.02;2.97;;;;;;;14.03;66.25;98182.16;4947246;28;103003;-74
2024/04/15 08:52:31;;;;;;;6.97;2.90;;;;;;;14.38;67.01;98182.81;4935781;28;103400;-74
2024/04/15 08:55:03;;;;;;;8.20;3.47;;;;;;;15.01;65.07;98178.00;4954790;28;103149;-75
2024/04/15 08:57:31;;;;;;;8.63;3.45;;;;;;;15.04;65.81;98170.41;4936251;28;102775;-74
2024/04/15 08:59:59;;;;;;;9.77;3.38;;;;;;;14.83;64.17;98187.50;4940307;28;104049;-74
2024/04/15 09:02:26;;;;;;;10.13;3.33;;;;;;;13.94;67.61;98178.88;4939431;28;104062;-74
2024/04/15 09:04:52;;;;;;;7.43;3.20;;;;;;;14.23;67.54;98172.34;4954799;28;105134;-74
2024/04/15 09:07:17;;;;;;;13.20;3.33;;;;;;;14.86;65.08;98179.06;4956409;28;102723;-74
2024/04/15 09:09:43;;;;;;;9.30;3.13;;;;;;;15.26;65.12;98164.78;4929292;28;102756;-75
2024/04/15 09:12:09;;;;;;;9.43;3.35;;;;;;;15.32;64.98;98169.28;4939735;28;104024;-74
2024/04/15 09:14:35;;;;;;;8.07;3.10;;;;;;;15.04;66.24;98167.75;4957858;28;103216;-74
2024/04/15 09:17:01;;;;;;;7.57;3.00;;;;;;;14.86;66.17;98160.41;4954612;28;102857;-74
2024/04/15 09:19:29;;;;;;;8.77;3.20;;;;;;;14.53;65.30;98165.78;4954701;28;102951;-74
2024/04/15 09:22:00;;;;;;;10.15;2.80;;;;;;;15.14;64.17;98158.47;4951657;28;103253;-74
2024/04/15 09:24:27;;;;;;;10.38;3.35;;;;;;;14.77;65.65;98160.84;4941310;28;103353;-75
2024/04/15 09:26:53;;;;;;;8.20;2.97;;;;;;;15.08;64.66;98160.16;4953977;28;102810;-74
2024/04/15 09:29:19;;;;;;;5.35;2.42;;;;;;;14.69;66.03;98165.34;4939903;28;102938;-75
2024/04/15 09:31:45;;;;;;;11.85;2.80;;;;;;;14.90;66.09;98155.47;4941544;28;103487;-75
2024/04/15 09:34:10;;;;;;;9.82;2.88;;;;;;;15.13;65.11;98148.84;4950268;28;104018;-75
2024/04/15 09:36:40;;;;;;;6.75;2.85;;;;;;;15.34;62.89;98150.38;4925113;28;102886;-76
2024/04/15 09:39:07;;;;;;;9.10;3.15;;;;;;;15.89;62.10;98147.22;4952690;28;104461;-74
2024/04/15 09:41:34;;;;;;;5.80;1.90;;;;;;;15.81;62.49;98144.81;4951401;28;103700;-75
2024/04/15 09:44:00;;;;;;;4.95;2.00;;;;;;;15.64;63.08;98145.31;4937359;28;106429;-75
2024/04/15 09:46:31;;;;;;;5.45;2.30;;;;;;;15.51;62.67;98146.22;4955173;28;102856;-75
2024/04/15 09:48:59;;;;;;;7.28;2.70;;;;;;;14.70;65.60;98145.69;4934822;28;103007;-74
2024/04/15 09:51:32;;;;;;;8.32;2.67;;;;;;;15.01;63.77;98144.19;4949208;28;102937;-75
2024/04/15 09:54:01;;;;;;;7.93;2.97;;;;;;;14.72;65.38;98143.59;4957168;28;103224;-75
2024/04/15 09:56:33;;;;;;;6.18;2.45;;;;;;;14.86;64.56;98136.41;4937083;28;103417;-76
2024/04/15 09:59:01;;;;;;;7.88;2.20;;;;;;;14.84;64.29;98130.47;4954358;28;102944;-76
2024/04/15 10:01:32;;;;;;;7.85;2.00;;;;;;;14.90;64.20;98128.81;4939520;28;106540;-76
2024/04/15 10:04:04;;;;;;;12.02;2.80;;;;;;;14.80;64.08;98125.78;4941748;28;105348;-75
2024/04/15 10:06:42;;;;;;;7.85;2.38;;;;;;;14.91;63.02;98117.94;4950319;28;103073;-75
2024/04/15 10:09:08;;;;;;;7.75;2.65;;;;;;;14.81;63.44;98116.75;4950564;28;104849;-74
2024/04/15 10:11:35;;;;;;;7.43;2.65;;;;;;;15.15;64.38;98107.59;4927786;28;104270;-74
2024/04/15 10:14:01;;;;;;;5.72;2.20;;;;;;;15.77;61.69;98090.19;4936583;28;103696;-75
2024/04/15 10:16:27;;;;;;;4.32;2.03;;;;;;;16.23;60.36;98084.50;4957081;28;102817;-77
2024/04/15 10:18:57;;;;;;;6.88;2.53;;;;;;;16.97;58.62;98070.38;4936735;28;103009;-77
2024/04/15 10:21:25;;;;;;;7.82;2.33;;;;;;;16.91;57.20;98060.56;4952588;28;105463;-75
2024/04/15 10:23:51;;;;;;;8.57;2.60;;;;;;;16.48;59.54;98064.09;4932942;28;103279;-75
2024/04/15 10:26:19;;;;;;;9.10;2.45;;;;;;;16.55;58.68;98051.50;4951681;28;102853;-75
2024/04/15 10:28:47;;;;;;;6.30;2.22;;;;;;;15.82;59.26;98045.00;4950608;28;103755;-74
2024/04/15 10:31:13;;;;;;;4.75;1.58;;;;;;;16.16;59.37;98045.53;4953552;28;103408;-75
2024/04/15 10:33:50;;;;;;;5.72;1.60;;;;;;;15.80;59.23;98047.03;4935239;28;103783;-74
2024/04/15 10:36:28;;;;;;;7.10;2.88;;;;;;;15.90;59.00;98044.72;4948145;28;103234;-74
2024/04/15 10:38:54;;;;;;;3.22;1.40;;;;;;;15.94;59.38;98042.44;4949515;28;104138;-73
2024/04/15 10:41:21;;;;;;;6.82;1.77;;;;;;;15.87;59.08;98042.50;4936546;28;106136;-73
2024/04/15 10:43:48;;;;;;;5.53;1.60;;;;;;;15.68;58.69;98047.75;4948989;28;104050;-74
2024/04/15 10:46:16;;;;;;;5.93;1.67;;;;;;;15.82;59.22;98045.00;4937522;28;104560;-74
2024/04/15 10:48:42;;;;;;;9.40;1.80;;;;;;;15.82;57.97;98040.47;4934819;28;102890;-74
2024/04/15 10:51:08;;;;;;;4.03;1.50;;;;;;;15.85;58.35;98034.72;4938542;28;103522;-75
2024/04/15 10:53:33;;;;;;;3.75;1.23;;;;;;;15.83;58.27;98031.44;4955426;28;103524;-75
2024/04/15 10:56:04;;;;;;;4.03;1.20;;;;;;;16.16;58.02;98026.84;4950426;28;102863;-74
2024/04/15 10:58:32;;;;;;;6.35;1.52;;;;;;;16.47;56.83;98025.09;4955677;28;103263;-74
2024/04/15 11:00:58;;;;;;;3.53;1.27;;;;;;;16.53;57.32;98016.97;4948460;28;104359;-75
2024/04/15 11:03:24;;;;;;;6.00;1.63;;;;;;;16.37;57.13;98021.03;4950771;28;106298;-75
2024/04/15 11:05:49;;;;;;;8.68;2.50;;;;;;;16.22;57.05;98007.25;4931665;28;103069;-73
2024/04/15 11:08:16;;;;;;;6.10;1.50;;;;;;;16.25;56.04;97998.78;4951208;28;104443;-74
2024/04/15 11:10:42;;;;;;;8.93;1.83;;;;;;;16.49;56.16;97996.25;4938727;28;106805;-74
2024/04/15 11:13:15;;;;;;;10.57;1.35;;;;;;;16.71;56.04;97986.72;4932560;28;105572;-75
2024/04/15 11:15:40;;;;;;;7.05;2.00;;;;;;;16.45;56.18;97977.16;4949834;28;102825;-75
2024/04/15 11:18:15;;;;;;;6.13;2.10;;;;;;;16.31;55.71;97965.84;4948425;28;102975;-74
2024/04/15 11:20:41;;;;;;;10.63;2.80;;;;;;;16.42;55.39;97954.38;4952321;28;103232;-75
2024/04/15 11:23:06;;;;;;;9.90;2.40;;;;;;;16.54;55.83;97940.28;4936425;28;103731;-75
2024/04/15 11:25:33;;;;;;;21.63;12.77;;;;;;;16.71;54.28;97935.91;4946823;28;102747;-75
2024/04/15 11:28:00;;;;;;;7.93;1.98;;;;;;;16.82;53.42;97925.50;4951420;28;103157;-74
2024/04/15 11:30:28;;;;;;;5.18;1.75;;;;;;;17.07;53.21;97920.84;4939567;28;105250;-75
2024/04/15 11:32:58;;;;;;;6.70;1.45;;;;;;;17.02;52.75;97920.72;4947996;28;105349;-75
2024/04/15 11:35:24;;;;;;;7.35;1.40;;;;;;;17.42;53.19;97919.25;4960263;28;102796;-75
2024/04/15 11:37:53;;;;;;;5.78;1.10;;;;;;;17.46;53.72;97903.56;4953748;28;103181;-74
2024/04/15 11:40:20;;;;;;;7.47;1.30;;;;;;;17.17;53.31;97906.09;4939326;28;106217;-75
2024/04/15 11:42:45;;;;;;;4.32;1.30;;;;;;;17.02;53.38;97904.66;4937901;28;104722;-75
2024/04/15 11:45:14;;;;;;;10.20;1.50;;;;;;;17.03;53.18;97895.59;4951418;28;102770;-77
2024/04/15 11:47:41;;;;;;;7.88;1.40;;;;;;;16.62;53.12;97897.19;4935015;28;103227;-81
2024/04/15 11:50:09;;;;;;;7.10;1.45;;;;;;;16.74;53.60;97891.88;4945765;28;109908;-76
2024/04/15 11:52:36;;;;;;;7.82;1.67;;;;;;;16.85;53.71;97877.72;4954861;28;104070;-74
2024/04/15 11:55:04;;;;;;;7.80;2.10;;;;;;;16.87;53.73;97881.00;4958132;28;102865;-81
2024/04/15 11:57:33;;;;;;;5.13;1.33;;;;;;;16.97;53.90;97880.47;4939619;28;102872;-82
2024/04/15 11:59:59;;;;;;;10.50;1.95;;;;;;;16.78;54.50;97873.53;4942119;28;106857;-79
2024/04/15 12:02:24;;;;;;;9.90;1.35;;;;;;;17.00;53.69;97858.59;4938407;28;104179;-76
2024/04/15 12:04:52;;;;;;;10.20;1.95;;;;;;;17.03;52.69;97852.81;4922638;28;103454;-73
2024/04/15 12:07:18;;;;;;;5.82;1.10;;;;;;;17.53;52.30;97851.53;4946405;28;102814;-79
2024/04/15 12:09:44;;;;;;;15.82;2.15;;;;;;;17.80;52.11;97840.31;4952800;28;103265;-79
2024/04/15 12:12:10;;;;;;;9.27;1.65;;;;;;;18.34;50.55;97833.88;4956013;28;102831;-74
2024/04/15 12:14:36;;;;;;;7.65;1.48;;;;;;;18.56;50.04;97826.81;4960694;28;104498;-85
2024/04/15 12:17:04;;;;;;;7.35;1.70;;;;;;;18.58;49.02;97821.19;4954353;28;102764;-77
2024/04/15 12:19:30;;;;;;;6.95;1.75;;;;;;;18.32;49.18;97810.00;4960066;28;103382;-79
2024/04/15 12:21:55;;;;;;;10.10;1.30;;;;;;;18.24;49.22;97807.72;4954734;28;103236;-76
2024/04/15 12:24:27;;;;;;;5.60;1.40;;;;;;;18.30;48.28;97790.69;4935904;28;103117;-77